Time;durP1;ratioP1;P1;durP2;ratioP2;P2;SDS_P1;SDS_P2;PMS_P1;PMS_P2;Temp;Humidity;BMP_temperature;BMP_pressure;BME280_temperature;BME280_humidity;BME280_pressure;Samples;Min_cycle;Max_cycle;Signal;HPM_P1;HPM_P2
2021/12/16 00:02:18;;;;;;;;;;;9.10;99.90;;;;;;5133273;27;20332;-75
2021/12/16 00:05:21;;;;;;;;;;;9.10;99.90;;;;;;5125179;27;19923;-76
2021/12/16 00:07:57;;;;;;;;;;;9.10;99.90;;;;;;5128762;27;19924;-75
2021/12/16 00:10:29;;;;;;;;;;;9.10;99.90;;;;;;5125394;27;19974;-76
2021/12/16 00:29:56;;;;;;;;;;;9.00;99.90;;;;;;5118280;27;19943;-77
2021/12/16 00:32:35;;;;;;;;;;;9.00;99.90;;;;;;5118937;27;19932;-77
2021/12/16 00:35:04;;;;;;;;;;;9.10;99.90;;;;;;5125812;27;20340;-77
2021/12/16 00:37:30;;;;;;;;;;;9.10;99.90;;;;;;5124929;27;19923;-77
2021/12/16 00:39:57;;;;;;;;;;;9.00;99.90;;;;;;5128852;28;19924;-79
2021/12/16 00:42:35;;;;;;;;;;;9.00;99.90;;;;;;5130895;27;20019;-80
2021/12/16 00:45:27;;;;;;;;;;;9.00;99.90;;;;;;5126793;27;20006;-78
2021/12/16 00:47:58;;;;;;;;;;;9.10;99.90;;;;;;5123144;27;19931;-78
2021/12/16 00:55:58;;;;;;;;;;;9.00;99.90;;;;;;5117291;27;19946;-77
2021/12/16 00:58:28;;;;;;;;;;;9.00;99.90;;;;;;5101178;28;19927;-78
2021/12/16 01:01:03;;;;;;;;;;;9.10;99.90;;;;;;5109516;28;19937;-77
2021/12/16 01:03:36;;;;;;;;;;;9.00;99.90;;;;;;5102895;27;20391;-78
2021/12/16 01:09:14;;;;;;;;;;;9.00;99.90;;;;;;5089036;28;19924;-78
2021/12/16 01:34:13;;;;;;;;;;;9.00;99.90;;;;;;5113986;27;20007;-78
2021/12/16 01:37:05;;;;;;;;;;;9.00;99.90;;;;;;5113097;28;19930;-78
2021/12/16 01:42:39;;;;;;;;;;;9.00;99.90;;;;;;5115822;27;19923;-77
2021/12/16 01:50:50;;;;;;;;;;;9.00;99.90;;;;;;5018165;28;19925;-76
2021/12/16 01:53:36;;;;;;;;;;;9.00;99.90;;;;;;5071319;28;19936;-76
2021/12/16 01:56:15;;;;;;;;;;;9.00;99.90;;;;;;5100451;27;19966;-76
2021/12/16 01:58:43;;;;;;;;;;;9.00;99.90;;;;;;5108857;27;19925;-77
2021/12/16 02:01:17;;;;;;;;;;;9.00;99.90;;;;;;5103795;27;20010;-76
2021/12/16 02:03:47;;;;;;;;;;;9.00;99.90;;;;;;5112103;27;20018;-76
2021/12/16 02:06:37;;;;;;;;;;;9.00;99.90;;;;;;5109732;28;19931;-76
2021/12/16 02:09:06;;;;;;;;;;;9.00;99.90;;;;;;5098257;27;19924;-77
2021/12/16 02:11:49;;;;;;;;;;;9.00;99.90;;;;;;5109558;27;20023;-76
2021/12/16 02:28:22;;;;;;;;;;;9.00;99.90;;;;;;5112949;28;19931;-77
2021/12/16 02:36:27;;;;;;;;;;;9.00;99.90;;;;;;5107565;28;19928;-80
2021/12/16 02:38:57;;;;;;;;;;;9.00;99.90;;;;;;5112742;27;19945;-78
2021/12/16 02:41:24;;;;;;;;;;;9.00;99.90;;;;;;5111339;27;19932;-76
2021/12/16 02:44:10;;;;;;;;;;;9.00;99.90;;;;;;5112910;28;19977;-77
2021/12/16 02:49:27;;;;;;;;;;;9.00;99.90;;;;;;5051997;28;20422;-77
2021/12/16 02:51:54;;;;;;;;;;;9.00;99.90;;;;;;5108099;28;19930;-78
2021/12/16 02:54:22;;;;;;;;;;;9.00;99.90;;;;;;5099035;28;19924;-76
2021/12/16 02:56:48;;;;;;;;;;;9.00;99.90;;;;;;5111828;27;19931;-77
2021/12/16 02:59:18;;;;;;;;;;;9.00;99.90;;;;;;5101812;27;19931;-77
2021/12/16 03:01:46;;;;;;;;;;;9.00;99.90;;;;;;5110240;28;20073;-76
2021/12/16 03:04:14;;;;;;;;;;;9.00;99.90;;;;;;5108052;27;19966;-77
2021/12/16 03:06:42;;;;;;;;;;;9.00;99.90;;;;;;5108481;28;19928;-77
2021/12/16 03:09:11;;;;;;;;;;;9.00;99.90;;;;;;5109792;28;19935;-77
2021/12/16 03:11:48;;;;;;;;;;;9.00;99.90;;;;;;5109277;28;20014;-79
2021/12/16 03:14:26;;;;;;;;;;;8.90;99.90;;;;;;5103265;27;20297;-78
2021/12/16 03:17:07;;;;;;;;;;;8.90;99.90;;;;;;5109653;28;19924;-80
2021/12/16 03:19:45;;;;;;;;;;;8.90;99.90;;;;;;5109027;28;19931;-79
2021/12/16 03:22:24;;;;;;;;;;;8.90;99.90;;;;;;5108759;28;19923;-78
2021/12/16 03:25:12;;;;;;;;;;;8.90;99.90;;;;;;5104809;28;19927;-77
2021/12/16 03:33:31;;;;;;;;;;;8.90;99.90;;;;;;5081199;28;19927;-77
2021/12/16 03:36:07;;;;;;;;;;;8.90;99.90;;;;;;5100649;28;20011;-78
2021/12/16 03:38:35;;;;;;;;;;;8.90;99.90;;;;;;5108873;28;19924;-78
2021/12/16 03:41:02;;;;;;;;;;;8.90;99.90;;;;;;5107056;28;19930;-79
2021/12/16 03:43:31;;;;;;;;;;;8.90;99.90;;;;;;5108198;28;20002;-79
2021/12/16 03:48:46;;;;;;;;;;;8.90;99.90;;;;;;5101486;28;19932;-76
2021/12/16 03:51:16;;;;;;;;;;;8.90;99.90;;;;;;5111974;28;19924;-76
2021/12/16 03:53:43;;;;;;;;;;;8.90;99.90;;;;;;5103079;28;19971;-80
2021/12/16 03:56:11;;;;;;;;;;;8.90;99.90;;;;;;5101820;28;19928;-81
2021/12/16 03:58:39;;;;;;;;;;;8.90;99.90;;;;;;5100722;28;20018;-82
2021/12/16 04:01:11;;;;;;;;;;;8.90;99.90;;;;;;5102893;28;20214;-79
2021/12/16 04:03:48;;;;;;;;;;;8.90;99.90;;;;;;5110147;28;20020;-80
2021/12/16 04:06:15;;;;;;;;;;;8.90;99.90;;;;;;5105966;28;19927;-80
2021/12/16 04:08:42;;;;;;;;;;;8.90;99.90;;;;;;5103315;28;19924;-78
2021/12/16 04:11:12;;;;;;;;;;;8.90;99.90;;;;;;5107654;28;19924;-76
2021/12/16 04:13:53;;;;;;;;;;;8.90;99.90;;;;;;5108582;28;19924;-78
2021/12/16 04:16:20;;;;;;;;;;;8.90;99.90;;;;;;5107670;28;19949;-78
2021/12/16 04:18:47;;;;;;;;;;;8.90;99.90;;;;;;5109269;28;19932;-77
2021/12/16 04:21:15;;;;;;;;;;;8.90;99.90;;;;;;5108544;28;19930;-78
2021/12/16 04:23:42;;;;;;;;;;;8.90;99.90;;;;;;5105518;28;19931;-77
2021/12/16 04:26:09;;;;;;;;;;;8.90;99.90;;;;;;5109180;28;19930;-81
2021/12/16 04:28:35;;;;;;;;;;;8.90;99.90;;;;;;5109101;28;19938;-78
2021/12/16 04:31:03;;;;;;;;;;;8.90;99.90;;;;;;5108526;27;19924;-78
2021/12/16 04:33:30;;;;;;;;;;;8.90;99.90;;;;;;5108717;27;19931;-78
2021/12/16 04:35:57;;;;;;;;;;;8.90;99.90;;;;;;5107718;27;19924;-78
2021/12/16 04:38:24;;;;;;;;;;;8.90;99.90;;;;;;5103947;27;20298;-78
2021/12/16 04:40:50;;;;;;;;;;;8.90;99.90;;;;;;5109488;28;19927;-77
2021/12/16 04:43:21;;;;;;;;;;;8.90;99.90;;;;;;5112224;27;19924;-78
2021/12/16 04:45:48;;;;;;;;;;;8.90;99.90;;;;;;5112638;28;19924;-79
2021/12/16 04:48:16;;;;;;;;;;;8.90;99.90;;;;;;5106613;27;19943;-79
2021/12/16 04:50:43;;;;;;;;;;;8.90;99.90;;;;;;5106992;28;20392;-80
2021/12/16 04:53:10;;;;;;;;;;;8.80;99.90;;;;;;5111132;27;20553;-78
2021/12/16 04:55:36;;;;;;;;;;;8.80;99.90;;;;;;5100786;27;20395;-79
2021/12/16 04:58:03;;;;;;;;;;;8.90;99.90;;;;;;5106033;27;20306;-79
2021/12/16 05:00:30;;;;;;;;;;;8.90;99.90;;;;;;5108082;28;19982;-77
2021/12/16 05:02:56;;;;;;;;;;;8.90;99.90;;;;;;5113548;28;20366;-77
2021/12/16 05:05:25;;;;;;;;;;;8.90;99.90;;;;;;5107802;27;19932;-76
2021/12/16 05:07:53;;;;;;;;;;;8.80;99.90;;;;;;5112685;27;19923;-78
2021/12/16 05:10:20;;;;;;;;;;;8.80;99.90;;;;;;5113209;27;19930;-78
2021/12/16 05:12:49;;;;;;;;;;;8.90;99.90;;;;;;5113878;27;19924;-82
2021/12/16 05:15:17;;;;;;;;;;;8.90;99.90;;;;;;5112443;28;20010;-78
2021/12/16 05:17:48;;;;;;;;;;;8.90;99.90;;;;;;5111950;28;19977;-77
2021/12/16 05:20:16;;;;;;;;;;;8.90;99.90;;;;;;5107764;27;20015;-77
2021/12/16 05:25:43;;;;;;;;;;;8.90;99.90;;;;;;5105836;28;19935;-77
2021/12/16 05:28:10;;;;;;;;;;;8.90;99.90;;;;;;5110569;27;20038;-78
2021/12/16 05:30:37;;;;;;;;;;;8.90;99.90;;;;;;5112449;27;20018;-81
2021/12/16 05:33:04;;;;;;;;;;;8.80;99.90;;;;;;5110638;27;19924;-76
2021/12/16 05:35:32;;;;;;;;;;;8.80;99.90;;;;;;5105035;27;20310;-77
2021/12/16 05:38:00;;;;;;;;;;;8.80;99.90;;;;;;5106391;28;19924;-78
2021/12/16 05:40:28;;;;;;;;;;;8.80;99.90;;;;;;5103665;27;19924;-77
2021/12/16 05:42:56;;;;;;;;;;;8.80;99.90;;;;;;5111111;27;19934;-77
2021/12/16 05:45:23;;;;;;;;;;;8.90;99.90;;;;;;5104922;27;19927;-76
2021/12/16 05:47:50;;;;;;;;;;;8.90;99.90;;;;;;5107437;27;20371;-77
2021/12/16 05:50:18;;;;;;;;;;;8.90;99.90;;;;;;5099802;28;19924;-77
2021/12/16 05:52:44;;;;;;;;;;;8.90;99.90;;;;;;5102184;27;19932;-77
2021/12/16 05:55:13;;;;;;;;;;;8.90;99.90;;;;;;5106423;27;20429;-76
2021/12/16 05:57:40;;;;;;;;;;;8.90;99.90;;;;;;5109923;28;20355;-76
2021/12/16 06:00:09;;;;;;;;;;;8.90;99.90;;;;;;5100939;27;19924;-76
2021/12/16 06:02:36;;;;;;;;;;;8.90;99.90;;;;;;5106362;28;19943;-77
2021/12/16 06:05:03;;;;;;;;;;;8.90;99.90;;;;;;5111291;27;19930;-79
2021/12/16 06:07:30;;;;;;;;;;;8.90;99.90;;;;;;5105611;27;20397;-77
2021/12/16 06:09:56;;;;;;;;;;;8.80;99.90;;;;;;5112822;27;20022;-77
2021/12/16 06:12:26;;;;;;;;;;;8.90;99.90;;;;;;5110753;27;20412;-77
2021/12/16 06:15:03;;;;;;;;;;;8.90;99.90;;;;;;5107495;28;20270;-78
2021/12/16 06:28:34;;;;;;;;;;;8.90;99.90;;;;;;5107383;28;20417;-76
2021/12/16 06:31:01;;;;;;;;;;;8.90;99.90;;;;;;5107448;27;19963;-76
2021/12/16 06:33:27;;;;;;;;;;;8.90;99.90;;;;;;5105340;27;19930;-74
2021/12/16 06:35:55;;;;;;;;;;;8.90;99.90;;;;;;5103959;27;20066;-74
2021/12/16 06:38:22;;;;;;;;;;;8.90;99.90;;;;;;5109648;27;19928;-74
2021/12/16 06:40:49;;;;;;;;;;;8.90;99.90;;;;;;5106556;27;19990;-74
2021/12/16 06:43:18;;;;;;;;;;;8.90;99.90;;;;;;5104108;27;19944;-73
2021/12/16 06:45:49;;;;;;;;;;;8.90;99.90;;;;;;5102331;27;19928;-74
2021/12/16 06:48:20;;;;;;;;;;;8.90;99.90;;;;;;5103057;27;19924;-75
2021/12/16 06:50:52;;;;;;;;;;;8.90;99.90;;;;;;5102481;27;20482;-75
2021/12/16 06:53:25;;;;;;;;;;;8.90;99.90;;;;;;5108145;27;19973;-74
2021/12/16 06:56:00;;;;;;;;;;;8.90;99.90;;;;;;5107037;27;19931;-75
2021/12/16 06:58:32;;;;;;;;;;;8.90;99.90;;;;;;5108714;27;19923;-74
2021/12/16 07:01:08;;;;;;;;;;;8.90;99.90;;;;;;5106267;27;20340;-74
2021/12/16 07:03:45;;;;;;;;;;;8.90;99.90;;;;;;5109625;28;19928;-75
2021/12/16 07:06:13;;;;;;;;;;;8.90;99.90;;;;;;5094726;27;19975;-75
2021/12/16 07:08:40;;;;;;;;;;;8.90;99.90;;;;;;5107408;28;19923;-74
2021/12/16 07:11:07;;;;;;;;;;;8.90;99.90;;;;;;5106654;27;20283;-74
2021/12/16 07:13:39;;;;;;;;;;;8.90;99.90;;;;;;5103017;28;19924;-74
2021/12/16 07:16:08;;;;;;;;;;;8.90;99.90;;;;;;5094794;28;19931;-75
2021/12/16 07:18:35;;;;;;;;;;;8.90;99.90;;;;;;5107042;28;19928;-74
2021/12/16 07:21:02;;;;;;;;;;;8.90;99.90;;;;;;5107371;28;19928;-74
2021/12/16 07:23:29;;;;;;;;;;;8.90;99.90;;;;;;5105370;28;19924;-74
2021/12/16 07:25:56;;;;;;;;;;;9.00;99.90;;;;;;5100365;28;19938;-74
2021/12/16 07:28:23;;;;;;;;;;;9.00;99.90;;;;;;5106730;28;19923;-74
2021/12/16 07:30:50;;;;;;;;;;;9.00;99.90;;;;;;5108628;28;19924;-73
2021/12/16 07:33:18;;;;;;;;;;;9.10;99.90;;;;;;5109964;28;19978;-74
2021/12/16 07:35:45;;;;;;;;;;;9.10;99.90;;;;;;5109158;28;19930;-73
2021/12/16 07:38:16;;;;;;;;;;;9.10;99.90;;;;;;5105567;28;19967;-73
2021/12/16 07:40:43;;;;;;;;;;;9.00;99.90;;;;;;5111442;28;19924;-75
2021/12/16 07:43:43;;;;;;;;;;;9.00;99.90;;;;;;5103242;28;19924;-76
2021/12/16 07:46:11;;;;;;;;;;;9.10;99.90;;;;;;5104279;28;19924;-75
2021/12/16 07:48:39;;;;;;;;;;;9.00;99.90;;;;;;5107707;28;19927;-75
2021/12/16 07:51:06;;;;;;;;;;;9.00;99.90;;;;;;5110042;28;19924;-74
2021/12/16 07:53:33;;;;;;;;;;;9.00;99.90;;;;;;5107060;28;20318;-74
2021/12/16 07:56:00;;;;;;;;;;;9.00;99.90;;;;;;5110189;28;19930;-73
2021/12/16 07:58:27;;;;;;;;;;;9.00;99.90;;;;;;5104415;28;19930;-75
2021/12/16 08:00:54;;;;;;;;;;;9.00;99.90;;;;;;5111483;28;19930;-73
2021/12/16 08:03:21;;;;;;;;;;;9.00;99.90;;;;;;5106015;28;19938;-74
2021/12/16 08:05:53;;;;;;;;;;;9.00;99.90;;;;;;5111067;28;19935;-75
2021/12/16 08:08:19;;;;;;;;;;;9.00;99.90;;;;;;5112873;28;19931;-72
2021/12/16 08:10:46;;;;;;;;;;;9.00;99.90;;;;;;5104977;27;20022;-75
2021/12/16 08:13:14;;;;;;;;;;;9.00;99.90;;;;;;5113059;28;19930;-75
2021/12/16 08:15:41;;;;;;;;;;;9.00;99.90;;;;;;5112456;27;20310;-76
2021/12/16 08:18:08;;;;;;;;;;;9.00;99.90;;;;;;5110684;28;19966;-76
2021/12/16 08:20:35;;;;;;;;;;;9.00;99.90;;;;;;5108255;27;20396;-73
2021/12/16 08:23:03;;;;;;;;;;;9.10;99.90;;;;;;5107235;28;19924;-75
2021/12/16 08:25:31;;;;;;;;;;;9.10;99.90;;;;;;5112720;28;20018;-75
2021/12/16 08:27:58;;;;;;;;;;;9.10;99.90;;;;;;5104395;28;19924;-74
2021/12/16 08:30:26;;;;;;;;;;;9.10;99.90;;;;;;5107151;27;19955;-75
2021/12/16 08:32:52;;;;;;;;;;;9.20;99.90;;;;;;5108136;28;20012;-73
2021/12/16 08:35:19;;;;;;;;;;;9.20;99.90;;;;;;5106424;27;19928;-74
2021/12/16 08:37:46;;;;;;;;;;;9.20;99.90;;;;;;5107795;27;19931;-75
2021/12/16 08:40:17;;;;;;;;;;;9.20;99.90;;;;;;5107972;28;19931;-74
2021/12/16 08:42:44;;;;;;;;;;;9.20;99.90;;;;;;5106458;28;19924;-74
2021/12/16 08:45:12;;;;;;;;;;;9.20;99.90;;;;;;5109704;27;20301;-78
2021/12/16 08:47:39;;;;;;;;;;;9.20;99.90;;;;;;5107768;28;19955;-73
2021/12/16 08:50:07;;;;;;;;;;;9.20;99.90;;;;;;5102139;28;20384;-75
2021/12/16 08:52:33;;;;;;;;;;;9.20;99.90;;;;;;5109676;28;19966;-75
2021/12/16 08:55:00;;;;;;;;;;;9.20;99.90;;;;;;5110361;28;19976;-74
2021/12/16 08:57:29;;;;;;;;;;;9.20;99.90;;;;;;5108867;28;20040;-74
2021/12/16 08:59:56;;;;;;;;;;;9.20;99.90;;;;;;5110983;28;20016;-75
2021/12/16 09:02:23;;;;;;;;;;;9.30;99.90;;;;;;5103517;27;20378;-76
2021/12/16 09:04:50;;;;;;;;;;;9.30;99.90;;;;;;5109048;27;21963;-76
2021/12/16 09:07:18;;;;;;;;;;;9.30;99.90;;;;;;5108391;28;20390;-76
2021/12/16 09:09:45;;;;;;;;;;;9.30;99.90;;;;;;5110857;28;20015;-76
2021/12/16 09:12:26;;;;;;;;;;;9.30;99.90;;;;;;5104362;28;20332;-77
2021/12/16 09:14:54;;;;;;;;;;;9.30;99.90;;;;;;5111014;28;19923;-76
2021/12/16 09:17:21;;;;;;;;;;;9.40;99.90;;;;;;5107390;28;19946;-77
2021/12/16 09:19:50;;;;;;;;;;;9.40;99.90;;;;;;5109513;28;19927;-74
2021/12/16 09:22:17;;;;;;;;;;;9.40;99.90;;;;;;5105921;27;20018;-77
2021/12/16 09:24:44;;;;;;;;;;;9.50;99.90;;;;;;5108354;28;20387;-79
2021/12/16 09:27:10;;;;;;;;;;;9.50;99.90;;;;;;5107040;28;19938;-76
2021/12/16 09:29:37;;;;;;;;;;;9.50;99.90;;;;;;5107289;28;19947;-75
2021/12/16 09:32:07;;;;;;;;;;;9.50;99.90;;;;;;5105556;28;19927;-76
2021/12/16 09:34:33;;;;;;;;;;;9.50;99.90;;;;;;5107098;27;19969;-77
2021/12/16 09:37:00;;;;;;;;;;;9.50;99.90;;;;;;5106332;28;19930;-76
2021/12/16 09:39:27;;;;;;;;;;;9.60;99.90;;;;;;5105717;27;19924;-75
2021/12/16 09:41:55;;;;;;;;;;;9.60;99.90;;;;;;5102951;28;19930;-75
2021/12/16 09:44:25;;;;;;;;;;;9.60;99.90;;;;;;5102157;28;19974;-76
2021/12/16 09:46:52;;;;;;;;;;;9.70;99.90;;;;;;5110548;27;20321;-75
2021/12/16 09:49:21;;;;;;;;;;;9.70;99.90;;;;;;5106637;28;19932;-76
2021/12/16 09:51:49;;;;;;;;;;;9.70;99.90;;;;;;5108988;28;20026;-75
2021/12/16 09:54:18;;;;;;;;;;;9.80;99.90;;;;;;5107104;27;19924;-77
2021/12/16 09:56:46;;;;;;;;;;;9.80;99.90;;;;;;5106821;28;19971;-77
2021/12/16 09:59:14;;;;;;;;;;;9.80;99.90;;;;;;5108496;27;20030;-79
2021/12/16 10:01:41;;;;;;;;;;;9.90;99.90;;;;;;5110245;28;19923;-76
2021/12/16 10:04:09;;;;;;;;;;;10.00;99.90;;;;;;5105119;27;19963;-75
2021/12/16 10:06:38;;;;;;;;;;;10.00;99.90;;;;;;5109969;28;20421;-76
2021/12/16 10:09:07;;;;;;;;;;;10.00;99.90;;;;;;5104599;28;19993;-78
2021/12/16 10:11:34;;;;;;;;;;;10.10;99.90;;;;;;5108396;28;19946;-78
2021/12/16 10:14:15;;;;;;;;;;;10.10;99.90;;;;;;5104910;27;19931;-76
2021/12/16 10:19:27;;;;;;;;;;;10.20;99.90;;;;;;5107358;28;19931;-77
2021/12/16 10:22:15;;;;;;;;;;;10.20;99.90;;;;;;5104770;28;19970;-73
2021/12/16 10:24:41;;;;;;;;;;;10.30;99.90;;;;;;5105756;28;19969;-74
2021/12/16 10:27:09;;;;;;;;;;;10.30;99.90;;;;;;5103547;28;19950;-75
2021/12/16 10:29:36;;;;;;;;;;;10.40;99.90;;;;;;5101218;28;19938;-73
2021/12/16 10:32:03;;;;;;;;;;;10.40;99.90;;;;;;5101035;28;20374;-74
2021/12/16 10:34:30;;;;;;;;;;;10.50;99.90;;;;;;5100455;28;20381;-73
2021/12/16 10:36:59;;;;;;;;;;;10.50;99.90;;;;;;5107972;28;20014;-74
2021/12/16 10:39:26;;;;;;;;;;;10.50;99.90;;;;;;5104632;27;20477;-74
2021/12/16 10:41:55;;;;;;;;;;;10.60;99.90;;;;;;5106337;28;19924;-75
2021/12/16 10:44:22;;;;;;;;;;;10.70;99.90;;;;;;5108607;27;19955;-76
2021/12/16 10:46:50;;;;;;;;;;;10.60;99.90;;;;;;5107320;28;19924;-75
2021/12/16 10:49:19;;;;;;;;;;;10.70;99.90;;;;;;5107597;28;20580;-76
2021/12/16 10:51:46;;;;;;;;;;;10.70;99.90;;;;;;5105473;27;19931;-74
2021/12/16 10:54:16;;;;;;;;;;;10.80;99.90;;;;;;5107792;28;19930;-74
2021/12/16 10:56:57;;;;;;;;;;;10.80;99.90;;;;;;5105741;27;19924;-75
2021/12/16 10:59:26;;;;;;;;;;;10.80;99.90;;;;;;5105364;28;22470;-77
2021/12/16 11:01:58;;;;;;;;;;;10.90;99.90;;;;;;5105058;28;19932;-77
2021/12/16 11:04:27;;;;;;;;;;;10.90;99.90;;;;;;5106155;27;20060;-76
2021/12/16 11:06:56;;;;;;;;;;;11.00;99.90;;;;;;5104797;28;20342;-76
2021/12/16 11:09:32;;;;;;;;;;;11.00;99.90;;;;;;5109642;28;19931;-74
2021/12/16 11:12:06;;;;;;;;;;;11.00;99.90;;;;;;5106471;28;19924;-76
2021/12/16 11:14:33;;;;;;;;;;;11.00;99.90;;;;;;5107638;28;19924;-77
2021/12/16 11:17:00;;;;;;;;;;;10.90;99.90;;;;;;5106716;27;19942;-77
2021/12/16 11:19:38;;;;;;;;;;;10.90;99.90;;;;;;5102224;27;19923;-74
2021/12/16 11:22:05;;;;;;;;;;;11.00;99.90;;;;;;5103440;28;19928;-75
2021/12/16 11:24:33;;;;;;;;;;;11.10;99.90;;;;;;5103454;27;19999;-78
2021/12/16 11:27:00;;;;;;;;;;;11.10;99.90;;;;;;5100034;28;20015;-77
2021/12/16 11:29:29;;;;;;;;;;;11.20;99.90;;;;;;5106870;28;19958;-77
2021/12/16 11:31:57;;;;;;;;;;;11.30;99.90;;;;;;5102444;28;19931;-76
2021/12/16 11:34:24;;;;;;;;;;;11.30;99.90;;;;;;5107201;28;19939;-77
2021/12/16 11:36:54;;;;;;;;;;;11.30;99.90;;;;;;5104640;27;20292;-76
2021/12/16 11:39:22;;;;;;;;;;;11.40;99.90;;;;;;5107294;28;19968;-76
2021/12/16 11:41:52;;;;;;;;;;;11.40;99.90;;;;;;5107443;28;20298;-78
2021/12/16 11:44:20;;;;;;;;;;;11.40;99.90;;;;;;5106915;28;19924;-75
2021/12/16 11:46:47;;;;;;;;;;;11.30;99.90;;;;;;5099894;28;20479;-75
2021/12/16 11:49:22;;;;;;;;;;;11.20;99.90;;;;;;5106583;28;19928;-76
2021/12/16 11:51:51;;;;;;;;;;;11.20;99.90;;;;;;5104400;28;19932;-74
2021/12/16 11:54:20;;;;;;;;;;;11.20;99.90;;;;;;5105990;28;19931;-73
2021/12/16 11:56:48;;;;;;;;;;;11.10;99.90;;;;;;5105678;28;20435;-75
2021/12/16 11:59:22;;;;;;;;;;;11.10;99.90;;;;;;5106778;28;19934;-74
2021/12/16 12:01:49;;;;;;;;;;;11.20;99.90;;;;;;5105141;28;19928;-75
2021/12/16 12:04:16;;;;;;;;;;;11.30;99.90;;;;;;5106005;28;19923;-75
2021/12/16 12:06:45;;;;;;;;;;;11.20;99.90;;;;;;5104732;28;19928;-77
2021/12/16 12:09:12;;;;;;;;;;;11.20;99.90;;;;;;5101747;28;20417;-76
2021/12/16 12:11:42;;;;;;;;;;;11.20;99.90;;;;;;5105829;28;19924;-74
2021/12/16 12:14:11;;;;;;;;;;;11.40;99.90;;;;;;5107015;28;20022;-75
2021/12/16 12:16:40;;;;;;;;;;;11.40;99.90;;;;;;5103203;28;20381;-74
2021/12/16 12:19:12;;;;;;;;;;;11.40;99.90;;;;;;5105899;28;20305;-75
2021/12/16 12:21:41;;;;;;;;;;;11.40;99.90;;;;;;5103058;28;19924;-76
2021/12/16 12:24:11;;;;;;;;;;;11.50;99.90;;;;;;5105324;28;20354;-76
2021/12/16 12:26:39;;;;;;;;;;;11.50;99.90;;;;;;5102836;28;19928;-75
2021/12/16 12:29:08;;;;;;;;;;;11.60;99.90;;;;;;5103003;28;19927;-76
2021/12/16 12:31:36;;;;;;;;;;;11.60;99.90;;;;;;5101084;28;19924;-75
2021/12/16 12:34:04;;;;;;;;;;;11.70;99.90;;;;;;5103686;28;20094;-74
2021/12/16 12:36:31;;;;;;;;;;;11.70;99.90;;;;;;5104438;28;20301;-74
2021/12/16 12:38:58;;;;;;;;;;;11.70;99.90;;;;;;5102866;28;19928;-75
2021/12/16 12:41:24;;;;;;;;;;;11.70;99.90;;;;;;5101678;28;19932;-75
2021/12/16 12:43:52;;;;;;;;;;;11.70;99.90;;;;;;5104866;28;20611;-74
2021/12/16 12:46:19;;;;;;;;;;;11.70;99.90;;;;;;5102478;28;19924;-74
2021/12/16 12:48:47;;;;;;;;;;;11.70;99.90;;;;;;5105815;28;19928;-73
2021/12/16 12:51:15;;;;;;;;;;;11.60;99.90;;;;;;5104151;28;19968;-74
2021/12/16 12:53:48;;;;;;;;;;;11.60;99.90;;;;;;5105763;28;19951;-74
2021/12/16 12:56:16;;;;;;;;;;;11.60;99.90;;;;;;5103875;27;20032;-75
2021/12/16 12:58:51;;;;;;;;;;;11.60;99.90;;;;;;5105311;28;19927;-75
2021/12/16 13:01:17;;;;;;;;;;;11.70;99.90;;;;;;5104326;27;19932;-76
2021/12/16 13:03:45;;;;;;;;;;;11.70;99.90;;;;;;5108584;27;20038;-76
2021/12/16 13:06:13;;;;;;;;;;;11.70;99.90;;;;;;5109264;27;20281;-74
2021/12/16 13:08:43;;;;;;;;;;;11.70;99.90;;;;;;5107969;28;19948;-78
2021/12/16 13:11:13;;;;;;;;;;;11.70;99.90;;;;;;5107774;27;20044;-74
2021/12/16 13:13:56;;;;;;;;;;;11.60;99.90;;;;;;5109278;28;20022;-74
2021/12/16 13:16:50;;;;;;;;;;;11.70;99.90;;;;;;5109809;28;19969;-76
2021/12/16 13:25:41;;;;;;;;;;;11.70;99.90;;;;;;5107336;28;19938;-76
2021/12/16 13:28:04;;;;;;;;;;;11.60;99.90;;;;;;5108350;27;19957;-75
2021/12/16 13:30:37;;;;;;;;;;;11.50;99.90;;;;;;5106507;27;19924;-77
2021/12/16 13:33:14;;;;;;;;;;;11.40;99.90;;;;;;5109177;27;19961;-76
2021/12/16 13:35:47;;;;;;;;;;;11.30;99.90;;;;;;5106876;28;20289;-78
2021/12/16 13:38:14;;;;;;;;;;;11.20;99.90;;;;;;5111980;27;19932;-85
2021/12/16 13:40:43;;;;;;;;;;;11.10;99.90;;;;;;5104606;27;19932;-80
2021/12/16 13:43:16;;;;;;;;;;;11.00;99.90;;;;;;5106746;27;20022;-75
2021/12/16 13:45:49;;;;;;;;;;;11.00;99.90;;;;;;5104130;28;20301;-82
2021/12/16 13:48:38;;;;;;;;;;;10.90;99.90;;;;;;5109723;28;19928;-77
2021/12/16 14:02:32;;;;;;;;;;;10.80;99.90;;;;;;5083605;28;19923;-77
2021/12/16 14:05:15;;;;;;;;;;;10.80;99.90;;;;;;5105561;28;19931;-75
2021/12/16 14:07:54;;;;;;;;;;;10.80;99.90;;;;;;5103083;27;19932;-76
2021/12/16 14:10:28;;;;;;;;;;;10.70;99.90;;;;;;5106566;28;20386;-74
2021/12/16 14:16:20;;;;;;;;;;;10.70;99.90;;;;;;5106258;28;19924;-72
2021/12/16 14:25:00;;;;;;;;;;;10.70;99.90;;;;;;5095580;28;19934;-74
2021/12/16 14:39:00;;;;;;;;;;;10.50;99.90;;;;;;5104488;27;19942;-74
2021/12/16 14:42:06;;;;;;;;;;;10.60;99.90;;;;;;5103500;28;19927;-75
2021/12/16 14:50:10;;;;;;;;;;;10.40;99.90;;;;;;5072043;28;19923;-75
2021/12/16 14:52:37;;;;;;;;;;;10.30;99.90;;;;;;5104369;28;19924;-74
2021/12/16 14:55:06;;;;;;;;;;;10.20;99.90;;;;;;5105706;27;19923;-77
2021/12/16 14:57:36;;;;;;;;;;;10.10;99.90;;;;;;5101772;28;19932;-74
2021/12/16 15:00:09;;;;;;;;;;;10.10;99.90;;;;;;5105177;27;19935;-76
2021/12/16 15:02:39;;;;;;;;;;;10.00;99.90;;;;;;5103980;28;20298;-72
2021/12/16 15:05:20;;;;;;;;;;;10.00;99.90;;;;;;5106865;27;19924;-74
2021/12/16 15:07:47;;;;;;;;;;;9.90;99.90;;;;;;5107810;28;19924;-75
2021/12/16 15:10:14;;;;;;;;;;;9.80;99.90;;;;;;5109118;27;20410;-75
2021/12/16 15:12:48;;;;;;;;;;;9.70;99.90;;;;;;5097341;27;19981;-76
2021/12/16 15:15:23;;;;;;;;;;;9.70;99.90;;;;;;5106204;28;19932;-75
2021/12/16 15:37:27;;;;;;;;;;;9.20;99.90;;;;;;5061968;28;20650;-75
2021/12/16 15:40:08;;;;;;;;;;;9.10;99.90;;;;;;5112173;27;19923;-77
2021/12/16 15:42:49;;;;;;;;;;;9.00;99.90;;;;;;5104613;28;19924;-77
2021/12/16 15:45:17;;;;;;;;;;;8.90;99.90;;;;;;5106832;28;19928;-79
2021/12/16 15:47:46;;;;;;;;;;;8.80;99.90;;;;;;5105326;28;19924;-76
2021/12/16 15:50:15;;;;;;;;;;;8.80;99.90;;;;;;5101494;28;19924;-78
2021/12/16 15:52:43;;;;;;;;;;;8.70;99.90;;;;;;5106309;28;19974;-79
2021/12/16 15:55:14;;;;;;;;;;;8.70;99.90;;;;;;5107998;28;19939;-77
2021/12/16 15:57:41;;;;;;;;;;;8.60;99.90;;;;;;5107313;28;19992;-78
2021/12/16 16:00:10;;;;;;;;;;;8.50;99.90;;;;;;5104671;28;19976;-80
2021/12/16 16:02:37;;;;;;;;;;;8.40;99.90;;;;;;5104366;28;19946;-77
2021/12/16 16:05:04;;;;;;;;;;;8.40;99.90;;;;;;5097196;28;19967;-77
2021/12/16 16:07:33;;;;;;;;;;;8.30;99.90;;;;;;5105888;28;19970;-75
2021/12/16 16:10:00;;;;;;;;;;;8.30;99.90;;;;;;5101527;28;20386;-77
2021/12/16 16:12:30;;;;;;;;;;;8.30;99.90;;;;;;5103028;28;19942;-77
2021/12/16 16:15:05;;;;;;;;;;;8.20;99.90;;;;;;5105391;28;19981;-80
2021/12/16 16:17:40;;;;;;;;;;;8.20;99.90;;;;;;5105833;28;20034;-78
2021/12/16 16:20:07;;;;;;;;;;;8.20;99.90;;;;;;5107502;28;19928;-79
2021/12/16 16:22:35;;;;;;;;;;;8.10;99.90;;;;;;5105336;28;19924;-79
2021/12/16 16:25:04;;;;;;;;;;;8.00;99.90;;;;;;5101383;28;19923;-76
2021/12/16 16:27:31;;;;;;;;;;;8.00;99.90;;;;;;5108066;27;20377;-75
2021/12/16 16:29:59;;;;;;;;;;;8.00;99.90;;;;;;5106072;27;20278;-84
2021/12/16 16:32:28;;;;;;;;;;;7.90;99.90;;;;;;5112173;27;20058;-78
2021/12/16 16:34:58;;;;;;;;;;;7.80;99.90;;;;;;5109497;27;19942;-76
2021/12/16 16:37:27;;;;;;;;;;;7.80;99.90;;;;;;5113390;27;20465;-78
2021/12/16 16:39:57;;;;;;;;;;;7.70;99.90;;;;;;5115646;28;19924;-76
2021/12/16 16:42:31;;;;;;;;;;;7.70;99.90;;;;;;5111309;27;19924;-76
2021/12/16 16:44:58;;;;;;;;;;;7.70;99.90;;;;;;5103649;27;19928;-86
2021/12/16 16:47:31;;;;;;;;;;;7.60;99.90;;;;;;5101246;27;20397;-77
2021/12/16 16:49:59;;;;;;;;;;;7.60;99.90;;;;;;5111821;27;19927;-76
2021/12/16 16:52:28;;;;;;;;;;;7.60;99.90;;;;;;5107770;27;19927;-76
2021/12/16 16:55:04;;;;;;;;;;;7.50;99.90;;;;;;5109434;27;20011;-75
2021/12/16 16:57:32;;;;;;;;;;;7.50;99.90;;;;;;5105607;27;20022;-80
2021/12/16 16:59:59;;;;;;;;;;;7.40;99.90;;;;;;5109255;28;20450;-80
2021/12/16 17:02:29;;;;;;;;;;;7.30;99.90;;;;;;5108302;27;19949;-82
2021/12/16 17:04:58;;;;;;;;;;;7.30;99.90;;;;;;5110459;27;19924;-76
2021/12/16 17:07:25;;;;;;;;;;;7.10;99.90;;;;;;5109682;27;19924;-81
2021/12/16 17:09:52;;;;;;;;;;;7.00;99.90;;;;;;5103263;27;19927;-79
2021/12/16 17:12:20;;;;;;;;;;;7.00;99.90;;;;;;5110167;27;19942;-76
2021/12/16 17:14:53;;;;;;;;;;;7.00;99.90;;;;;;5106324;27;20379;-78
2021/12/16 17:17:23;;;;;;;;;;;7.00;99.90;;;;;;5108908;27;19963;-79
2021/12/16 17:20:11;;;;;;;;;;;7.00;99.90;;;;;;5110341;27;19928;-82
2021/12/16 17:22:45;;;;;;;;;;;6.90;99.90;;;;;;5104840;28;20586;-76
2021/12/16 17:25:12;;;;;;;;;;;6.90;99.90;;;;;;5110931;27;19930;-78
2021/12/16 17:27:43;;;;;;;;;;;6.90;99.90;;;;;;5104109;27;20129;-77
2021/12/16 17:30:16;;;;;;;;;;;6.90;99.90;;;;;;5112136;28;19928;-79
2021/12/16 17:32:44;;;;;;;;;;;6.80;99.90;;;;;;5108710;28;19924;-80